Logo AVAMET
Benvolgut visitant, si us plau, ingressa Recuperar contrasenya

Dénia Joan Chabàs

Dades diàries. Acumulats / Últims 30 dies disponibles

Data Temperatura (°C) Humitat rel. (%) Pressió rel. (hPa) Vent (km/h) Precipitació
Mínima Mitjana Màxima Amplitud
tèrmica
Mínima Mitjana Màxima Mínima Mitjana Màxima Predom. Mitjana Ràfega
màxima
Total
(mm)
Índex-n
Mínima Mitjana Màxima Mínima Mitjana Màxima n
0 a 1
P0 max
mm 5'
Dades mensuals acumulades fins l'últim dia disponible
11/2019 9,8 14,6 22,3 17,4 15,8 20,5 27,5 17,7 26 50 83 999 1.009 1.019   10,6 75,8 4,5
Dades anuals acumulades fins l'últim dia disponible
2019 3,6 16,2 27,6 20,1 13,8 24,2 40,2 36,6 16 65 97 993 1.016 1.035   6,1 103,6 695,9
Últims 30 dies disponibles
17-11-2019 9,8     14,1     17,9 8,1 37 59 80 1.009 1.011 1.014 O 8,8 40,7 1,3 0,51 0,50
16-11-2019 10,1     12,3     15,8 5,7 44 52 59 1.006 1.010 1.014 ONO 5,7 31,4 0,0
15-11-2019 10,8     13,6     15,9 5,1 38 48 58 1.000 1.003 1.006 O 8,4 42,5 0,0
14-11-2019 12,6     15,5     17,5 4,9 41 57 73 999 1.002 1.009 O 7,4 55,5 0,0
13-11-2019 13,2     16,4     20,7 7,5 42 63 83 1.005 1.007 1.011 ONO 4,2 44,4 3,2
12-11-2019 12,4     15,3     19,4 7,0 33 46 59 1.008 1.010 1.012 ONO 7,5 40,7 0,0
11-11-2019 10,8     14,4     17,6 6,8 38 50 61 1.010 1.012 1.013 O 9,0 42,5 0,0
10-11-2019 12,6     14,9     17,2 4,6 37 50 63 1.009 1.011 1.013 ONO 15,8 46,3 0,0
09-11-2019 13,6     16,1     19,3 5,7 32 47 62 1.013 1.016 1.018 O 13,5 50,0 0,0
08-11-2019 12,1     15,0     17,3 5,2 35 46 57 1.008 1.012 1.016 ONO 19,0 55,5 0,0
07-11-2019 15,3     18,2     21,7 6,4 26 41 56 1.007 1.009 1.013 OSO 6,8 38,9 0,0
06-11-2019 15,5     17,7     21,5 6,0 34 44 53 1.011 1.012 1.013 O 11,9 38,9 0,0
05-11-2019 16,8     19,2     22,1 5,3 38 48 58 1.005 1.008 1.011 O 16,1 68,5 0,0
04-11-2019 20,0     22,4     25,9 5,9 41 50 59 1.005 1.008 1.011 O 11,0 66,6 0,0
03-11-2019 20,1     22,5     24,9 4,8 42 51 59 1.001 1.004 1.010 O 15,8 75,8 0,0
02-11-2019 22,3     24,3     26,8 4,5 41 50 59 1.004 1.008 1.012 O 11,2 46,3 0,0
01-11-2019 20,3     24,1     27,5 7,2 49 58 67 1.012 1.016 1.019 O 7,6 44,4 0,0
31-10-2019 20,9     23,3     26,4 5,5 49 65 81 1.018 1.019 1.020 O 6,0 40,7 0,0
30-10-2019 16,3     20,6     23,9 7,6 58 74 89 1.018 1.019 1.021 SSE 1,7 16,6 0,0
29-10-2019 16,3     19,7     23,4 7,1 64 78 92 1.014 1.016 1.018 E 2,4 18,5 0,0
28-10-2019 14,8     18,6     21,6 6,8 71 82 93 1.015 1.017 1.019 NNO 1,2 18,5 0,0
27-10-2019 15,2     18,4     20,8 5,6 75 83 91 1.019 1.020 1.022 ENE 2,4 18,5 0,0
26-10-2019 14,3     18,0     20,9 6,6 64 76 88 1.019 1.020 1.021 NO 2,0 12,9 0,0
25-10-2019 16,4     19,6     24,6 8,2 44 60 76 1.019 1.021 1.022 OSO 1,5 18,5 0,0
24-10-2019 13,6     17,3     21,9 8,3 45 59 72 1.010 1.015 1.020 O 5,9 44,4 0,0
23-10-2019 12,4     15,8     20,1 7,7 49 66 83 1.005 1.007 1.011 OSO 2,6 51,8 2,6 0,22 0,80
22-10-2019 14,6     16,2     17,6 3,0 66 80 93 1.004 1.009 1.016 NO 9,3 51,8 70,0 0,48 2,90
21-10-2019 14,6     16,2     18,0 3,4 52 71 89 1.014 1.016 1.018 OSO 1,0 37,0 6,0
20-10-2019 17,9     21,7     24,4 6,5 44 60 75 1.004 1.008 1.015 OSO 4,8 53,6 0,0
19-10-2019 18,3     23,1     26,6 8,3 32 54 76 1.005 1.009 1.012 S 6,9 53,6 0,0
Últims 13 mesos disponibles
10/2019 12,4 17,9 22,1 21,3 17,6 24,8 33,7 21,3 43 67 85 1.007 1.015 1.021 OSO 3,9 53,6 80,9
09/2019 14,7 21,2 24,2 24,7 23,6 28,1 34,3 19,6 48 72 93 1.009 1.016 1.022 S 6,1 103,6 237,0
08/2019 20,6 23,7 27,6 27,5 27,2 31,7 40,2 19,6 51 68 82 1.009 1.014 1.019 S 6,3 59,5 22,2
07/2019 22,8 24,1 25,5 27,4 27,2 31,2 39,5 16,7 45 67 83 1.004 1.012 1.020 SSE 6,7 83,7 2,1
06/2019 15,5 18,9 24,1 23,3 21,2 28,1 37,1 21,6 36 65 86 1.007 1.014 1.021 SSE 6,8 69,2 0,0
05/2019 12,4 15,5 20,9 19,5 18,2 24,4 30,7 18,3 49 66 83 1.004 1.014 1.023 SSE 6,0 72,4 9,0
04/2019 10,7 12,7 14,6 16,3 16,2 20,0 27,4 16,7 40 67 92 998 1.012 1.024 SSE 7,7 68,5 281,9
03/2019 8,8 10,8 13,8 15,5 14,7 20,1 27,7 18,9 36 60 88 1.009 1.022 1.029 SSE 4,7 59,5 36,7
02/2019 6,5 8,8 12,6 13,3 13,8 18,3 24,1 17,6 37 64 84 995 1.024 1.033 S 5,2 72,4 0,0
01/2019 3,6 8,2 11,7 12,7 13,9 17,2 21,8 18,2 41 59 83 1.002 1.018 1.030 S 5,3 77,7 3,7
12/2018 7,6 10,3 13,4 14,5 14,3 19,5 22,6 15,0 52 69 87 1.008 1.024 1.030 S 2,6 66,6 29,8
11/2018 9,6 12,9 16,7 16,3 17,0 19,9 23,8 14,2 46 67 92 999 1.014 1.022 SO 5,3 79,6 114,1
10/2018 9,9 16,7 21,2 20,0 14,7 23,3 28,6 18,7 39 69 89 999 1.013 1.025 SO 0,2 61,0 109,3
Tots els anys disponibles
2018 5,3 16,3 27,5 19,7 8,6 23,2 37,8 32,5 34 65 92 993 1.015 1.034 SSO 0,7 89,0 625,8
2017 0,6 16,0 27,5 19,5 10,0 22,9 37,2 36,6 31 66 91 999 1.018 1.036 93,0 587,2
2016 3,9 16,3 26,7 19,5 11,8 22,7 37,8 33,9 59 66 80 1.013 1.017 1.026 89,0 457,1
2015 4,1 16,1 23,5 19,5 21,4 22,9 40,4 36,3 59 67 80 1.014 1.018 1.030 76,0 628,2
2014 5,9 16,6 27,0 19,9 11,8 23,2 38,2 32,3 37 64 90 992 1.015 1.033 6,8 85,0 235,4
2013 3,4 15,6 19,2 18,9 19,5 22,2 34,4 31,0 55 63 72 1.007 1.015 1.024 5,7 98,0 642,8
2012 1,6 15,6 22,1 19,0 19,2 22,7 39,4 37,8 7,9 75,9 532,2
2011 1,4 16,1 25,7 19,3 6,7 22,6 37,2 35,8 7,4 98,0 478,4
2010 3,1 15,2 26,2 18,4 6,1 21,7 41,9 38,8 7,8 101,8 604,1
2009 2,9 17,9 26,5 21,3 9,1 24,9 38,6 35,7 7,6 99,9 848,8
Temperatura (°C)
Humitat relativa (%)
Velocitat del vent i ràfega màxima (km/h)
Direcció del vent (°)
Pressió (hPa)
Precipitació (mm)
Nota sobre les dades: s'avisa a l'usuari de la provisionalitat i no oficialitat d'aquestes dades
Logo AVAMET blanc
Web allotjada a Sollutia
Llicència de Creative CommonsLa web d'AVAMET i els seus continguts estan subjectes a una llicència de
Reconeixement - No Comercial - Compartir igual
Últimes estacions: Xàbia - Alt de la Granadella (Soci), Villena - Sierra de Salinas (Soci), Sueca - Centre (Inforatge), Xàbia - La Plana (Soci), Banyeres de Mariola - Molí Sol (Soci), Villena - Villa Ventín (Soci), Benissa - Convent (Soci), - - -